sensor_id;sensor_type;location;lat;lon;timestamp;temperature;humidity
22379;DHT22;11357;49.990;7.370;2022-12-29T00:01:18;12.30;92.00
22379;DHT22;11357;49.990;7.370;2022-12-29T00:03:47;12.30;92.10
22379;DHT22;11357;49.990;7.370;2022-12-29T00:06:13;12.30;92.20
22379;DHT22;11357;49.990;7.370;2022-12-29T00:08:38;12.30;92.20
22379;DHT22;11357;49.990;7.370;2022-12-29T00:11:10;12.30;92.30
22379;DHT22;11357;49.990;7.370;2022-12-29T00:13:36;12.30;92.40
22379;DHT22;11357;49.990;7.370;2022-12-29T00:16:21;12.30;92.50
22379;DHT22;11357;49.990;7.370;2022-12-29T00:18:47;12.20;92.50
22379;DHT22;11357;49.990;7.370;2022-12-29T00:21:17;12.20;92.60
22379;DHT22;11357;49.990;7.370;2022-12-29T00:24:02;12.20;92.70
22379;DHT22;11357;49.990;7.370;2022-12-29T00:27:30;12.20;92.70
22379;DHT22;11357;49.990;7.370;2022-12-29T00:29:54;12.20;92.80
22379;DHT22;11357;49.990;7.370;2022-12-29T00:32:39;12.20;92.90
22379;DHT22;11357;49.990;7.370;2022-12-29T00:35:38;12.20;92.90
22379;DHT22;11357;49.990;7.370;2022-12-29T00:38:06;12.10;93.00
22379;DHT22;11357;49.990;7.370;2022-12-29T00:40:51;12.20;93.30
22379;DHT22;11357;49.990;7.370;2022-12-29T00:43:35;12.20;93.10
22379;DHT22;11357;49.990;7.370;2022-12-29T00:46:19;12.20;93.10
22379;DHT22;11357;49.990;7.370;2022-12-29T00:48:45;12.10;93.10
22379;DHT22;11357;49.990;7.370;2022-12-29T00:51:29;12.10;93.20
22379;DHT22;11357;49.990;7.370;2022-12-29T00:53:55;12.10;93.30
22379;DHT22;11357;49.990;7.370;2022-12-29T00:56:20;12.10;93.30
22379;DHT22;11357;49.990;7.370;2022-12-29T00:58:46;12.10;93.30
22379;DHT22;11357;49.990;7.370;2022-12-29T01:01:12;12.10;93.30
22379;DHT22;11357;49.990;7.370;2022-12-29T01:03:38;12.20;93.30
22379;DHT22;11357;49.990;7.370;2022-12-29T01:06:06;12.20;93.40
22379;DHT22;11357;49.990;7.370;2022-12-29T01:08:32;12.20;93.40
22379;DHT22;11357;49.990;7.370;2022-12-29T01:13:32;12.20;93.50
22379;DHT22;11357;49.990;7.370;2022-12-29T01:15:58;12.20;93.40
22379;DHT22;11357;49.990;7.370;2022-12-29T01:18:25;12.20;93.50
22379;DHT22;11357;49.990;7.370;2022-12-29T01:20:51;12.20;93.50
22379;DHT22;11357;49.990;7.370;2022-12-29T01:23:17;12.20;93.60
22379;DHT22;11357;49.990;7.370;2022-12-29T01:25:42;12.20;93.50
22379;DHT22;11357;49.990;7.370;2022-12-29T01:28:08;12.20;93.50
22379;DHT22;11357;49.990;7.370;2022-12-29T01:30:35;12.30;93.60
22379;DHT22;11357;49.990;7.370;2022-12-29T01:33:01;12.30;93.50
22379;DHT22;11357;49.990;7.370;2022-12-29T01:35:27;12.30;93.50
22379;DHT22;11357;49.990;7.370;2022-12-29T01:37:53;12.30;93.40
22379;DHT22;11357;49.990;7.370;2022-12-29T01:40:19;12.30;93.30
22379;DHT22;11357;49.990;7.370;2022-12-29T01:42:45;12.40;93.20
22379;DHT22;11357;49.990;7.370;2022-12-29T01:45:12;12.40;93.20
22379;DHT22;11357;49.990;7.370;2022-12-29T01:47:55;12.40;93.30
22379;DHT22;11357;49.990;7.370;2022-12-29T01:52:59;12.40;93.20
22379;DHT22;11357;49.990;7.370;2022-12-29T01:55:28;12.50;93.30
22379;DHT22;11357;49.990;7.370;2022-12-29T01:57:56;12.40;93.20
22379;DHT22;11357;49.990;7.370;2022-12-29T02:00:24;12.40;93.20
22379;DHT22;11357;49.990;7.370;2022-12-29T02:02:53;12.50;93.20
22379;DHT22;11357;49.990;7.370;2022-12-29T02:05:33;12.50;93.20
22379;DHT22;11357;49.990;7.370;2022-12-29T02:08:00;12.50;93.20
22379;DHT22;11357;49.990;7.370;2022-12-29T02:10:29;12.50;93.20
22379;DHT22;11357;49.990;7.370;2022-12-29T02:12:56;12.50;93.20
22379;DHT22;11357;49.990;7.370;2022-12-29T02:15:32;12.50;93.30
22379;DHT22;11357;49.990;7.370;2022-12-29T02:35:09;12.30;93.50
22379;DHT22;11357;49.990;7.370;2022-12-29T02:40:54;12.30;93.50
22379;DHT22;11357;49.990;7.370;2022-12-29T02:44:13;12.40;93.40
22379;DHT22;11357;49.990;7.370;2022-12-29T02:46:36;12.40;93.40
22379;DHT22;11357;49.990;7.370;2022-12-29T02:52:00;12.40;93.20
22379;DHT22;11357;49.990;7.370;2022-12-29T02:54:27;12.40;93.20
22379;DHT22;11357;49.990;7.370;2022-12-29T02:59:38;12.40;93.10
22379;DHT22;11357;49.990;7.370;2022-12-29T03:08:13;12.40;92.80
22379;DHT22;11357;49.990;7.370;2022-12-29T03:13:14;12.50;92.60
22379;DHT22;11357;49.990;7.370;2022-12-29T03:16:31;12.50;92.60
22379;DHT22;11357;49.990;7.370;2022-12-29T03:19:30;12.50;92.70
22379;DHT22;11357;49.990;7.370;2022-12-29T03:22:02;12.50;92.50
22379;DHT22;11357;49.990;7.370;2022-12-29T03:24:53;12.50;92.50
22379;DHT22;11357;49.990;7.370;2022-12-29T03:27:38;12.50;92.40
22379;DHT22;11357;49.990;7.370;2022-12-29T03:30:06;12.50;92.40
22379;DHT22;11357;49.990;7.370;2022-12-29T03:32:36;12.50;92.20
22379;DHT22;11357;49.990;7.370;2022-12-29T03:35:04;12.60;92.20
22379;DHT22;11357;49.990;7.370;2022-12-29T03:37:45;12.60;92.20
22379;DHT22;11357;49.990;7.370;2022-12-29T03:40:13;12.60;92.10
22379;DHT22;11357;49.990;7.370;2022-12-29T03:42:39;12.60;92.00
22379;DHT22;11357;49.990;7.370;2022-12-29T03:45:07;12.60;92.00
22379;DHT22;11357;49.990;7.370;2022-12-29T03:47:33;12.60;91.90
22379;DHT22;11357;49.990;7.370;2022-12-29T03:49:58;12.60;91.90
22379;DHT22;11357;49.990;7.370;2022-12-29T03:52:24;12.70;91.90
22379;DHT22;11357;49.990;7.370;2022-12-29T03:54:50;12.60;92.00
22379;DHT22;11357;49.990;7.370;2022-12-29T03:57:15;12.70;92.10
22379;DHT22;11357;49.990;7.370;2022-12-29T03:59:41;12.60;92.10
22379;DHT22;11357;49.990;7.370;2022-12-29T04:02:07;12.70;92.30
22379;DHT22;11357;49.990;7.370;2022-12-29T04:04:33;12.60;92.30
22379;DHT22;11357;49.990;7.370;2022-12-29T04:06:58;12.60;92.30
22379;DHT22;11357;49.990;7.370;2022-12-29T04:09:24;12.60;92.20
22379;DHT22;11357;49.990;7.370;2022-12-29T04:11:50;12.60;92.20
22379;DHT22;11357;49.990;7.370;2022-12-29T04:14:15;12.60;92.10
22379;DHT22;11357;49.990;7.370;2022-12-29T04:16:41;12.70;92.00
22379;DHT22;11357;49.990;7.370;2022-12-29T04:19:07;12.70;91.70
22379;DHT22;11357;49.990;7.370;2022-12-29T04:21:33;12.70;91.70
22379;DHT22;11357;49.990;7.370;2022-12-29T04:24:00;12.70;91.50
22379;DHT22;11357;49.990;7.370;2022-12-29T04:26:25;12.70;91.50
22379;DHT22;11357;49.990;7.370;2022-12-29T04:28:51;12.80;91.30
22379;DHT22;11357;49.990;7.370;2022-12-29T04:31:17;12.80;91.20
22379;DHT22;11357;49.990;7.370;2022-12-29T04:33:43;12.80;91.10
22379;DHT22;11357;49.990;7.370;2022-12-29T04:36:08;12.80;91.10
22379;DHT22;11357;49.990;7.370;2022-12-29T04:38:34;12.80;91.00
22379;DHT22;11357;49.990;7.370;2022-12-29T04:41:01;12.80;90.90
22379;DHT22;11357;49.990;7.370;2022-12-29T04:43:27;12.80;91.00
22379;DHT22;11357;49.990;7.370;2022-12-29T04:45:53;12.80;91.00
22379;DHT22;11357;49.990;7.370;2022-12-29T04:48:19;12.80;91.10
22379;DHT22;11357;49.990;7.370;2022-12-29T04:50:48;12.80;91.30
22379;DHT22;11357;49.990;7.370;2022-12-29T04:53:14;12.70;91.40
22379;DHT22;11357;49.990;7.370;2022-12-29T04:55:40;12.70;91.50
22379;DHT22;11357;49.990;7.370;2022-12-29T04:58:06;12.70;91.60
22379;DHT22;11357;49.990;7.370;2022-12-29T05:00:32;12.70;91.70
22379;DHT22;11357;49.990;7.370;2022-12-29T05:02:57;12.70;91.70
22379;DHT22;11357;49.990;7.370;2022-12-29T05:05:23;12.70;91.80
22379;DHT22;11357;49.990;7.370;2022-12-29T05:07:49;12.70;91.80
22379;DHT22;11357;49.990;7.370;2022-12-29T05:10:15;12.60;91.80
22379;DHT22;11357;49.990;7.370;2022-12-29T05:12:40;12.60;91.80
22379;DHT22;11357;49.990;7.370;2022-12-29T05:15:07;12.60;91.80
22379;DHT22;11357;49.990;7.370;2022-12-29T05:17:33;12.60;91.80
22379;DHT22;11357;49.990;7.370;2022-12-29T05:19:59;12.60;91.80
22379;DHT22;11357;49.990;7.370;2022-12-29T05:22:25;12.60;91.80
22379;DHT22;11357;49.990;7.370;2022-12-29T05:24:51;12.60;91.80
22379;DHT22;11357;49.990;7.370;2022-12-29T05:27:16;12.60;91.70
22379;DHT22;11357;49.990;7.370;2022-12-29T05:29:42;12.60;91.80
22379;DHT22;11357;49.990;7.370;2022-12-29T05:32:08;12.60;91.80
22379;DHT22;11357;49.990;7.370;2022-12-29T05:34:34;12.60;91.70
22379;DHT22;11357;49.990;7.370;2022-12-29T05:36:59;12.70;91.70
22379;DHT22;11357;49.990;7.370;2022-12-29T05:39:25;12.70;91.60
22379;DHT22;11357;49.990;7.370;2022-12-29T05:41:51;12.70;91.60
22379;DHT22;11357;49.990;7.370;2022-12-29T05:44:16;12.70;91.60
22379;DHT22;11357;49.990;7.370;2022-12-29T05:46:42;12.70;91.60
22379;DHT22;11357;49.990;7.370;2022-12-29T05:49:08;12.70;91.50
22379;DHT22;11357;49.990;7.370;2022-12-29T05:51:33;12.70;91.50
22379;DHT22;11357;49.990;7.370;2022-12-29T05:53:59;12.80;91.40
22379;DHT22;11357;49.990;7.370;2022-12-29T05:56:25;12.80;91.50
22379;DHT22;11357;49.990;7.370;2022-12-29T05:58:50;12.80;91.40
22379;DHT22;11357;49.990;7.370;2022-12-29T06:01:16;12.80;91.40
22379;DHT22;11357;49.990;7.370;2022-12-29T06:03:42;12.80;91.50
22379;DHT22;11357;49.990;7.370;2022-12-29T06:06:08;12.80;91.70
22379;DHT22;11357;49.990;7.370;2022-12-29T06:08:33;12.80;91.90
22379;DHT22;11357;49.990;7.370;2022-12-29T06:10:59;12.70;91.90
22379;DHT22;11357;49.990;7.370;2022-12-29T06:13:25;12.70;92.00
22379;DHT22;11357;49.990;7.370;2022-12-29T06:15:51;12.70;92.10
22379;DHT22;11357;49.990;7.370;2022-12-29T06:18:17;12.70;92.20
22379;DHT22;11357;49.990;7.370;2022-12-29T06:20:43;12.60;92.40
22379;DHT22;11357;49.990;7.370;2022-12-29T06:23:08;12.60;92.50
22379;DHT22;11357;49.990;7.370;2022-12-29T06:25:34;12.60;92.50
22379;DHT22;11357;49.990;7.370;2022-12-29T06:28:02;12.60;92.60
22379;DHT22;11357;49.990;7.370;2022-12-29T06:30:27;12.50;92.70
22379;DHT22;11357;49.990;7.370;2022-12-29T06:32:53;12.50;92.80
22379;DHT22;11357;49.990;7.370;2022-12-29T06:35:20;12.50;92.90
22379;DHT22;11357;49.990;7.370;2022-12-29T06:37:48;12.50;92.90
22379;DHT22;11357;49.990;7.370;2022-12-29T06:40:14;12.50;92.90
22379;DHT22;11357;49.990;7.370;2022-12-29T06:42:40;12.40;92.90
22379;DHT22;11357;49.990;7.370;2022-12-29T06:45:06;12.40;92.90
22379;DHT22;11357;49.990;7.370;2022-12-29T06:47:33;12.40;92.90
22379;DHT22;11357;49.990;7.370;2022-12-29T06:49:59;12.40;92.80
22379;DHT22;11357;49.990;7.370;2022-12-29T06:52:25;12.40;92.60
22379;DHT22;11357;49.990;7.370;2022-12-29T06:54:51;12.40;92.50
22379;DHT22;11357;49.990;7.370;2022-12-29T06:57:17;12.40;92.40
22379;DHT22;11357;49.990;7.370;2022-12-29T06:59:43;12.50;92.30
22379;DHT22;11357;49.990;7.370;2022-12-29T07:02:12;12.50;92.10
22379;DHT22;11357;49.990;7.370;2022-12-29T07:04:39;12.50;92.00
22379;DHT22;11357;49.990;7.370;2022-12-29T07:07:05;12.60;92.00
22379;DHT22;11357;49.990;7.370;2022-12-29T07:09:31;12.60;91.90
22379;DHT22;11357;49.990;7.370;2022-12-29T07:11:56;12.60;91.80
22379;DHT22;11357;49.990;7.370;2022-12-29T07:14:22;12.60;91.80
22379;DHT22;11357;49.990;7.370;2022-12-29T07:16:48;12.60;91.70
22379;DHT22;11357;49.990;7.370;2022-12-29T07:19:14;12.60;91.70
22379;DHT22;11357;49.990;7.370;2022-12-29T07:21:39;12.60;91.70
22379;DHT22;11357;49.990;7.370;2022-12-29T07:24:05;12.60;91.60
22379;DHT22;11357;49.990;7.370;2022-12-29T07:26:31;12.70;91.40
22379;DHT22;11357;49.990;7.370;2022-12-29T07:28:57;12.60;91.40
22379;DHT22;11357;49.990;7.370;2022-12-29T07:31:23;12.60;91.40
22379;DHT22;11357;49.990;7.370;2022-12-29T07:33:49;12.60;91.40
22379;DHT22;11357;49.990;7.370;2022-12-29T07:36:15;12.70;91.50
22379;DHT22;11357;49.990;7.370;2022-12-29T07:38:42;12.70;91.40
22379;DHT22;11357;49.990;7.370;2022-12-29T07:41:08;12.70;91.40
22379;DHT22;11357;49.990;7.370;2022-12-29T07:43:34;12.70;91.40
22379;DHT22;11357;49.990;7.370;2022-12-29T07:45:59;12.70;91.40
22379;DHT22;11357;49.990;7.370;2022-12-29T07:48:25;12.70;91.40
22379;DHT22;11357;49.990;7.370;2022-12-29T07:50:52;12.70;91.20
22379;DHT22;11357;49.990;7.370;2022-12-29T07:53:18;12.70;91.20
22379;DHT22;11357;49.990;7.370;2022-12-29T07:55:44;12.70;91.10
22379;DHT22;11357;49.990;7.370;2022-12-29T07:58:10;12.80;91.10
22379;DHT22;11357;49.990;7.370;2022-12-29T08:00:36;12.80;91.20
22379;DHT22;11357;49.990;7.370;2022-12-29T08:03:03;12.80;91.20
22379;DHT22;11357;49.990;7.370;2022-12-29T08:05:31;12.80;91.40
22379;DHT22;11357;49.990;7.370;2022-12-29T08:07:57;12.70;91.50
22379;DHT22;11357;49.990;7.370;2022-12-29T08:10:23;12.70;91.60
22379;DHT22;11357;49.990;7.370;2022-12-29T08:12:49;12.70;91.60
22379;DHT22;11357;49.990;7.370;2022-12-29T08:15:15;12.70;91.60
22379;DHT22;11357;49.990;7.370;2022-12-29T08:17:40;12.70;91.60
22379;DHT22;11357;49.990;7.370;2022-12-29T08:20:07;12.70;91.50
22379;DHT22;11357;49.990;7.370;2022-12-29T08:22:33;12.70;91.50
22379;DHT22;11357;49.990;7.370;2022-12-29T08:24:59;12.70;91.40
22379;DHT22;11357;49.990;7.370;2022-12-29T08:27:25;12.70;91.40
22379;DHT22;11357;49.990;7.370;2022-12-29T08:29:51;12.80;91.50
22379;DHT22;11357;49.990;7.370;2022-12-29T08:32:18;12.80;91.50
22379;DHT22;11357;49.990;7.370;2022-12-29T08:34:44;12.80;91.50
22379;DHT22;11357;49.990;7.370;2022-12-29T08:37:09;12.80;91.50
22379;DHT22;11357;49.990;7.370;2022-12-29T08:39:35;12.80;91.60
22379;DHT22;11357;49.990;7.370;2022-12-29T08:42:01;12.80;91.60
22379;DHT22;11357;49.990;7.370;2022-12-29T08:44:26;12.80;91.50
22379;DHT22;11357;49.990;7.370;2022-12-29T08:46:52;12.70;91.50
22379;DHT22;11357;49.990;7.370;2022-12-29T08:49:18;12.70;91.40
22379;DHT22;11357;49.990;7.370;2022-12-29T08:51:43;12.70;91.30
22379;DHT22;11357;49.990;7.370;2022-12-29T08:54:10;12.70;91.20
22379;DHT22;11357;49.990;7.370;2022-12-29T08:56:35;12.70;91.20
22379;DHT22;11357;49.990;7.370;2022-12-29T08:59:01;12.70;91.10
22379;DHT22;11357;49.990;7.370;2022-12-29T09:01:27;12.60;91.10
22379;DHT22;11357;49.990;7.370;2022-12-29T09:03:53;12.60;91.30
22379;DHT22;11357;49.990;7.370;2022-12-29T09:06:20;12.60;91.40
22379;DHT22;11357;49.990;7.370;2022-12-29T09:08:46;12.60;91.60
22379;DHT22;11357;49.990;7.370;2022-12-29T09:13:37;12.60;91.80
22379;DHT22;11357;49.990;7.370;2022-12-29T09:16:03;12.60;91.90
22379;DHT22;11357;49.990;7.370;2022-12-29T09:18:29;12.50;91.90
22379;DHT22;11357;49.990;7.370;2022-12-29T09:21:00;12.60;91.90
22379;DHT22;11357;49.990;7.370;2022-12-29T09:23:27;12.60;91.90
22379;DHT22;11357;49.990;7.370;2022-12-29T09:25:53;12.70;91.90
22379;DHT22;11357;49.990;7.370;2022-12-29T09:28:20;12.70;91.90
22379;DHT22;11357;49.990;7.370;2022-12-29T09:30:46;12.70;91.90
22379;DHT22;11357;49.990;7.370;2022-12-29T09:33:12;12.70;91.70
22379;DHT22;11357;49.990;7.370;2022-12-29T09:35:43;12.70;91.60
22379;DHT22;11357;49.990;7.370;2022-12-29T09:38:09;12.70;91.50
22379;DHT22;11357;49.990;7.370;2022-12-29T09:40:36;12.60;91.40
22379;DHT22;11357;49.990;7.370;2022-12-29T09:48:23;12.50;91.30
22379;DHT22;11357;49.990;7.370;2022-12-29T09:50:55;12.40;91.00
22379;DHT22;11357;49.990;7.370;2022-12-29T09:53:42;12.50;91.00
22379;DHT22;11357;49.990;7.370;2022-12-29T09:56:19;12.50;90.90
22379;DHT22;11357;49.990;7.370;2022-12-29T09:59:25;12.60;90.70
22379;DHT22;11357;49.990;7.370;2022-12-29T10:01:57;12.70;90.50
22379;DHT22;11357;49.990;7.370;2022-12-29T10:04:28;12.90;90.10
22379;DHT22;11357;49.990;7.370;2022-12-29T10:07:45;12.90;89.50
22379;DHT22;11357;49.990;7.370;2022-12-29T10:12:45;13.00;89.10
22379;DHT22;11357;49.990;7.370;2022-12-29T10:21:02;13.30;86.90
22379;DHT22;11357;49.990;7.370;2022-12-29T10:23:33;13.30;86.70
22379;DHT22;11357;49.990;7.370;2022-12-29T10:26:03;13.30;86.50
22379;DHT22;11357;49.990;7.370;2022-12-29T10:28:38;13.30;86.40
22379;DHT22;11357;49.990;7.370;2022-12-29T10:31:12;13.30;86.30
22379;DHT22;11357;49.990;7.370;2022-12-29T10:33:41;13.30;86.30
22379;DHT22;11357;49.990;7.370;2022-12-29T10:36:18;13.20;86.00
22379;DHT22;11357;49.990;7.370;2022-12-29T10:38:54;13.20;86.40
22379;DHT22;11357;49.990;7.370;2022-12-29T10:44:46;13.30;86.40
22379;DHT22;11357;49.990;7.370;2022-12-29T10:47:16;13.30;85.60
22379;DHT22;11357;49.990;7.370;2022-12-29T10:49:45;13.40;85.30
22379;DHT22;11357;49.990;7.370;2022-12-29T10:52:13;13.50;85.10
22379;DHT22;11357;49.990;7.370;2022-12-29T10:55:04;13.80;85.40
22379;DHT22;11357;49.990;7.370;2022-12-29T11:00:00;14.20;83.90
22379;DHT22;11357;49.990;7.370;2022-12-29T11:05:02;14.30;82.10
22379;DHT22;11357;49.990;7.370;2022-12-29T11:07:30;14.20;81.50
22379;DHT22;11357;49.990;7.370;2022-12-29T11:13:17;14.00;81.60
22379;DHT22;11357;49.990;7.370;2022-12-29T11:15:48;13.80;81.80
22379;DHT22;11357;49.990;7.370;2022-12-29T11:18:35;13.80;81.80
22379;DHT22;11357;49.990;7.370;2022-12-29T11:24:03;13.90;82.30
22379;DHT22;11357;49.990;7.370;2022-12-29T11:26:31;13.80;82.20
22379;DHT22;11357;49.990;7.370;2022-12-29T11:29:36;13.80;82.30
22379;DHT22;11357;49.990;7.370;2022-12-29T11:32:26;13.70;82.70
22379;DHT22;11357;49.990;7.370;2022-12-29T11:34:52;13.70;83.00
22379;DHT22;11357;49.990;7.370;2022-12-29T11:37:20;13.80;83.20
22379;DHT22;11357;49.990;7.370;2022-12-29T11:39:57;13.80;83.00
22379;DHT22;11357;49.990;7.370;2022-12-29T11:42:41;13.80;82.90
22379;DHT22;11357;49.990;7.370;2022-12-29T11:47:45;13.60;82.50
22379;DHT22;11357;49.990;7.370;2022-12-29T11:50:18;13.60;82.60
22379;DHT22;11357;49.990;7.370;2022-12-29T11:52:45;13.50;82.50
22379;DHT22;11357;49.990;7.370;2022-12-29T11:55:23;13.50;82.60
22379;DHT22;11357;49.990;7.370;2022-12-29T11:57:50;13.40;82.90
22379;DHT22;11357;49.990;7.370;2022-12-29T12:00:23;13.40;83.00
22379;DHT22;11357;49.990;7.370;2022-12-29T12:03:17;13.30;83.20
22379;DHT22;11357;49.990;7.370;2022-12-29T12:06:04;13.30;83.60
22379;DHT22;11357;49.990;7.370;2022-12-29T12:08:54;13.40;83.90
22379;DHT22;11357;49.990;7.370;2022-12-29T12:11:34;13.50;84.10
22379;DHT22;11357;49.990;7.370;2022-12-29T12:14:36;13.60;83.80
22379;DHT22;11357;49.990;7.370;2022-12-29T12:17:21;13.70;83.90
22379;DHT22;11357;49.990;7.370;2022-12-29T12:19:53;13.70;83.90
22379;DHT22;11357;49.990;7.370;2022-12-29T12:27:57;13.90;83.40
22379;DHT22;11357;49.990;7.370;2022-12-29T12:30:30;13.90;83.50
22379;DHT22;11357;49.990;7.370;2022-12-29T12:33:05;13.80;83.30
22379;DHT22;11357;49.990;7.370;2022-12-29T12:41:47;13.60;83.40
22379;DHT22;11357;49.990;7.370;2022-12-29T12:44:29;13.60;83.80
22379;DHT22;11357;49.990;7.370;2022-12-29T12:48:22;13.60;83.70
22379;DHT22;11357;49.990;7.370;2022-12-29T12:55:41;13.90;83.10
22379;DHT22;11357;49.990;7.370;2022-12-29T13:01:42;14.00;81.80
22379;DHT22;11357;49.990;7.370;2022-12-29T13:04:35;14.00;82.00
22379;DHT22;11357;49.990;7.370;2022-12-29T13:12:35;14.00;81.40
22379;DHT22;11357;49.990;7.370;2022-12-29T13:20:53;14.30;80.20
22379;DHT22;11357;49.990;7.370;2022-12-29T13:26:20;14.40;77.30
22379;DHT22;11357;49.990;7.370;2022-12-29T13:29:31;14.40;77.30
22379;DHT22;11357;49.990;7.370;2022-12-29T13:32:02;14.30;77.30
22379;DHT22;11357;49.990;7.370;2022-12-29T13:34:43;14.30;77.40
22379;DHT22;11357;49.990;7.370;2022-12-29T13:37:19;14.20;78.00
22379;DHT22;11357;49.990;7.370;2022-12-29T13:39:51;14.20;77.40
22379;DHT22;11357;49.990;7.370;2022-12-29T13:42:18;14.10;77.40
22379;DHT22;11357;49.990;7.370;2022-12-29T13:44:46;14.00;77.30
22379;DHT22;11357;49.990;7.370;2022-12-29T13:47:35;13.90;77.10
22379;DHT22;11357;49.990;7.370;2022-12-29T13:50:05;13.70;77.80
22379;DHT22;11357;49.990;7.370;2022-12-29T14:01:27;13.60;79.00
22379;DHT22;11357;49.990;7.370;2022-12-29T14:04:00;13.50;79.10
22379;DHT22;11357;49.990;7.370;2022-12-29T14:06:32;13.50;79.30
22379;DHT22;11357;49.990;7.370;2022-12-29T14:09:03;13.50;79.60
22379;DHT22;11357;49.990;7.370;2022-12-29T14:11:38;13.60;79.60
22379;DHT22;11357;49.990;7.370;2022-12-29T14:14:29;13.70;79.50
22379;DHT22;11357;49.990;7.370;2022-12-29T14:17:11;13.90;79.60
22379;DHT22;11357;49.990;7.370;2022-12-29T14:19:40;14.00;79.20
22379;DHT22;11357;49.990;7.370;2022-12-29T14:22:08;14.10;78.70
22379;DHT22;11357;49.990;7.370;2022-12-29T14:34:54;13.70;77.80
22379;DHT22;11357;49.990;7.370;2022-12-29T14:39:49;13.50;77.80
22379;DHT22;11357;49.990;7.370;2022-12-29T14:42:29;13.40;77.90
22379;DHT22;11357;49.990;7.370;2022-12-29T14:50:13;13.20;78.10
22379;DHT22;11357;49.990;7.370;2022-12-29T14:53:03;13.10;78.30
22379;DHT22;11357;49.990;7.370;2022-12-29T14:55:44;13.00;78.60
22379;DHT22;11357;49.990;7.370;2022-12-29T15:00:56;13.00;78.50
22379;DHT22;11357;49.990;7.370;2022-12-29T15:03:56;13.00;78.20
22379;DHT22;11357;49.990;7.370;2022-12-29T15:06:18;12.90;78.10
22379;DHT22;11357;49.990;7.370;2022-12-29T15:09:02;12.90;77.80
22379;DHT22;11357;49.990;7.370;2022-12-29T15:14:02;12.70;78.20
22379;DHT22;11357;49.990;7.370;2022-12-29T15:16:31;12.70;78.20
22379;DHT22;11357;49.990;7.370;2022-12-29T15:18:59;12.70;78.30
22379;DHT22;11357;49.990;7.370;2022-12-29T15:21:33;12.70;78.20
22379;DHT22;11357;49.990;7.370;2022-12-29T15:24:00;12.60;78.00
22379;DHT22;11357;49.990;7.370;2022-12-29T15:26:38;12.50;78.00
22379;DHT22;11357;49.990;7.370;2022-12-29T15:29:04;12.50;78.00
22379;DHT22;11357;49.990;7.370;2022-12-29T15:31:29;12.50;78.00
22379;DHT22;11357;49.990;7.370;2022-12-29T15:34:09;12.50;78.10
22379;DHT22;11357;49.990;7.370;2022-12-29T15:36:40;12.40;78.00
22379;DHT22;11357;49.990;7.370;2022-12-29T15:39:21;12.50;78.10
22379;DHT22;11357;49.990;7.370;2022-12-29T15:41:58;12.40;78.10
22379;DHT22;11357;49.990;7.370;2022-12-29T15:46:57;12.40;78.20
22379;DHT22;11357;49.990;7.370;2022-12-29T15:49:26;12.40;78.20
22379;DHT22;11357;49.990;7.370;2022-12-29T15:51:52;12.40;78.40
22379;DHT22;11357;49.990;7.370;2022-12-29T15:54:20;12.30;78.50
22379;DHT22;11357;49.990;7.370;2022-12-29T15:56:49;12.30;78.60
22379;DHT22;11357;49.990;7.370;2022-12-29T15:59:33;12.30;78.80
22379;DHT22;11357;49.990;7.370;2022-12-29T16:02:00;12.20;79.00
22379;DHT22;11357;49.990;7.370;2022-12-29T16:04:30;12.20;79.20
22379;DHT22;11357;49.990;7.370;2022-12-29T16:07:01;12.20;79.40
22379;DHT22;11357;49.990;7.370;2022-12-29T16:09:33;12.20;79.50
22379;DHT22;11357;49.990;7.370;2022-12-29T16:12:05;12.20;79.70
22379;DHT22;11357;49.990;7.370;2022-12-29T16:14:44;12.20;79.90
22379;DHT22;11357;49.990;7.370;2022-12-29T16:17:17;12.10;80.10
22379;DHT22;11357;49.990;7.370;2022-12-29T16:19:57;12.10;80.30
22379;DHT22;11357;49.990;7.370;2022-12-29T16:22:34;12.10;80.60
22379;DHT22;11357;49.990;7.370;2022-12-29T16:25:04;12.00;80.60
22379;DHT22;11357;49.990;7.370;2022-12-29T16:27:32;12.00;80.70
22379;DHT22;11357;49.990;7.370;2022-12-29T16:30:06;12.00;80.70
22379;DHT22;11357;49.990;7.370;2022-12-29T16:32:33;12.00;80.80
22379;DHT22;11357;49.990;7.370;2022-12-29T16:35:27;11.90;80.70
22379;DHT22;11357;49.990;7.370;2022-12-29T16:38:15;11.80;80.90
22379;DHT22;11357;49.990;7.370;2022-12-29T16:40:54;11.80;80.70
22379;DHT22;11357;49.990;7.370;2022-12-29T16:43:31;11.70;80.60
22379;DHT22;11357;49.990;7.370;2022-12-29T16:48:35;11.50;80.10
22379;DHT22;11357;49.990;7.370;2022-12-29T16:51:16;11.40;80.30
22379;DHT22;11357;49.990;7.370;2022-12-29T16:53:49;11.40;80.20
22379;DHT22;11357;49.990;7.370;2022-12-29T16:56:22;11.30;80.20
22379;DHT22;11357;49.990;7.370;2022-12-29T16:59:06;11.30;80.30
22379;DHT22;11357;49.990;7.370;2022-12-29T17:01:38;11.20;80.30
22379;DHT22;11357;49.990;7.370;2022-12-29T17:04:09;11.20;80.40
22379;DHT22;11357;49.990;7.370;2022-12-29T17:06:36;11.20;80.70
22379;DHT22;11357;49.990;7.370;2022-12-29T17:09:02;11.20;80.60
22379;DHT22;11357;49.990;7.370;2022-12-29T17:11:35;11.20;80.70
22379;DHT22;11357;49.990;7.370;2022-12-29T17:19:38;11.00;81.00
22379;DHT22;11357;49.990;7.370;2022-12-29T17:22:25;11.10;81.10
22379;DHT22;11357;49.990;7.370;2022-12-29T17:24:57;11.00;81.20
22379;DHT22;11357;49.990;7.370;2022-12-29T17:27:27;10.90;81.20
22379;DHT22;11357;49.990;7.370;2022-12-29T17:29:56;10.90;81.50
22379;DHT22;11357;49.990;7.370;2022-12-29T17:32:22;10.80;81.70
22379;DHT22;11357;49.990;7.370;2022-12-29T17:34:48;10.80;81.90
22379;DHT22;11357;49.990;7.370;2022-12-29T17:39:48;10.70;82.30
22379;DHT22;11357;49.990;7.370;2022-12-29T17:42:14;10.70;82.40
22379;DHT22;11357;49.990;7.370;2022-12-29T17:44:41;10.70;82.40
22379;DHT22;11357;49.990;7.370;2022-12-29T17:47:11;10.60;82.50
22379;DHT22;11357;49.990;7.370;2022-12-29T17:49:37;10.60;82.50
22379;DHT22;11357;49.990;7.370;2022-12-29T17:52:03;10.60;83.30
22379;DHT22;11357;49.990;7.370;2022-12-29T17:54:30;10.60;82.60
22379;DHT22;11357;49.990;7.370;2022-12-29T17:56:56;10.60;82.80
22379;DHT22;11357;49.990;7.370;2022-12-29T17:59:22;10.50;82.70
22379;DHT22;11357;49.990;7.370;2022-12-29T18:01:48;10.50;82.90
22379;DHT22;11357;49.990;7.370;2022-12-29T18:04:22;10.50;83.00
22379;DHT22;11357;49.990;7.370;2022-12-29T18:06:48;10.40;83.30
22379;DHT22;11357;49.990;7.370;2022-12-29T18:09:14;10.40;83.40
22379;DHT22;11357;49.990;7.370;2022-12-29T18:11:43;10.40;83.60
22379;DHT22;11357;49.990;7.370;2022-12-29T18:14:14;10.40;83.60
22379;DHT22;11357;49.990;7.370;2022-12-29T18:16:41;10.40;83.70
22379;DHT22;11357;49.990;7.370;2022-12-29T18:19:07;10.40;83.70
22379;DHT22;11357;49.990;7.370;2022-12-29T18:21:35;10.50;83.80
22379;DHT22;11357;49.990;7.370;2022-12-29T18:24:01;10.50;84.00
22379;DHT22;11357;49.990;7.370;2022-12-29T18:26:30;10.50;84.00